To NAV CANADA Home Page Login to a new session Search on AWWS site Feedback and Comments Disclaimer Vers la page française équivalente Tips FAQ What's new on the site To the Forecasts and Observations / NOTAM section To "File a Flight Plan" website Publications and other links Update of the User's profile FIC Telephone Numbers My Weather Data Folder Route Weather Data Regional Weather Data Local Weather Data To the Forecasts and Observations / NOTAM section
Request Generated 04/25/2015 at 14:23:46 UTC . Weather information available at that time is displayed.

METAR/TAF

MAKKOVIK/NL    

METAR CYFT 251400Z 02006KT 3SM BR OVC003 01/00 A3014 RMK ST8 ST
RAGGED 2-5 SLP211=
SPECI CYFT 251335Z 36003KT 340V100 1SM BR OVC003 01/00 A3014 RMK
FG4ST4 VIS E 4/ CIG HIGHER E SLP211=
METAR CYFT 251300Z 09003KT 2SM -DZ BR OVC003 01/00 A3014 RMK ST8 ST
RAGGED 2-4 SLP209=
SPECI CYFT 251246Z 10004KT 1 1/2SM -DZ BR OVC002 01/00 A3014 RMK
FG5ST3 SLP210=
METAR CYFT 251200Z 08005KT 3/4SM -DZ BR VV004 00/M00 A3013 RMK FG8
SLP206=

CYFT - No TAF is issued for this station

Your time UTC time
Weather data provided by Environment Canada and NAV CANADA